Time;durP1;ratioP1;P1;durP2;ratioP2;P2;SDS_P1;SDS_P2;PMS_P1;PMS_P2;Temp;Humidity;BMP_temperature;BMP_pressure;BME280_temperature;BME280_humidity;BME280_pressure;Samples;Min_cycle;Max_cycle;Signal;HPM_P1;HPM_P2
2022/10/21 00:01:07;;;;;;;;;;;9.80;99.90;;;;;;5025986;28;19913;-60
2022/10/21 00:03:33;;;;;;;;;;;9.90;99.90;;;;;;5007285;28;20369;-59
2022/10/21 00:05:58;;;;;;;;;;;9.80;99.90;;;;;;5014374;28;19917;-60
2022/10/21 00:08:24;;;;;;;;;;;9.90;99.90;;;;;;5017569;28;19931;-60
2022/10/21 00:10:57;;;;;;;;;;;9.90;99.90;;;;;;5014593;28;19916;-59
2022/10/21 00:13:22;;;;;;;;;;;9.90;99.90;;;;;;5013108;28;20399;-59
2022/10/21 00:16:01;;;;;;;;;;;9.90;99.90;;;;;;5016163;28;19917;-59
2022/10/21 00:18:27;;;;;;;;;;;9.90;99.90;;;;;;5022384;28;19909;-59
2022/10/21 00:20:52;;;;;;;;;;;10.00;99.90;;;;;;5011771;28;19915;-60
2022/10/21 00:23:18;;;;;;;;;;;9.90;99.90;;;;;;5014221;28;19918;-60
2022/10/21 00:25:43;;;;;;;;;;;10.00;99.90;;;;;;5017015;28;19909;-60
2022/10/21 00:28:09;;;;;;;;;;;10.00;99.90;;;;;;5018230;28;19917;-59
2022/10/21 00:30:35;;;;;;;;;;;10.00;99.90;;;;;;5010882;28;19910;-59
2022/10/21 00:33:00;;;;;;;;;;;10.00;99.90;;;;;;5016280;28;19905;-60
2022/10/21 00:35:25;;;;;;;;;;;10.00;99.90;;;;;;5022321;28;19913;-60
2022/10/21 00:37:51;;;;;;;;;;;10.00;99.90;;;;;;5016582;28;19909;-60
2022/10/21 00:40:17;;;;;;;;;;;10.00;99.90;;;;;;5013054;28;19916;-61
2022/10/21 00:42:42;;;;;;;;;;;10.00;99.90;;;;;;5009548;28;20380;-60
2022/10/21 00:45:08;;;;;;;;;;;10.00;99.90;;;;;;5010428;28;19964;-60
2022/10/21 00:47:56;;;;;;;;;;;10.10;99.90;;;;;;5014550;28;19916;-60
2022/10/21 00:50:34;;;;;;;;;;;10.10;99.90;;;;;;5009159;28;19935;-60
2022/10/21 00:53:00;;;;;;;;;;;10.10;99.90;;;;;;5002969;28;19916;-60
2022/10/21 00:55:28;;;;;;;;;;;10.10;99.90;;;;;;5014538;28;19910;-60
2022/10/21 00:57:54;;;;;;;;;;;10.10;99.90;;;;;;5011985;28;19913;-61
2022/10/21 01:00:20;;;;;;;;;;;10.20;99.90;;;;;;5010019;28;20328;-60
2022/10/21 01:02:45;;;;;;;;;;;10.30;99.90;;;;;;5008634;28;19969;-60
2022/10/21 01:05:12;;;;;;;;;;;10.30;99.90;;;;;;5013954;28;19963;-60
2022/10/21 01:07:37;;;;;;;;;;;10.20;99.90;;;;;;5014419;28;19917;-59
2022/10/21 01:10:03;;;;;;;;;;;10.20;99.90;;;;;;5017749;28;19963;-62
2022/10/21 01:12:38;;;;;;;;;;;10.20;99.90;;;;;;5009623;28;19913;-60
2022/10/21 01:15:22;;;;;;;;;;;10.20;99.90;;;;;;5003224;28;19915;-59
2022/10/21 01:18:08;;;;;;;;;;;10.20;99.90;;;;;;5012750;28;19996;-60
2022/10/21 01:20:36;;;;;;;;;;;10.20;99.90;;;;;;5009278;28;19916;-60
2022/10/21 01:23:14;;;;;;;;;;;10.20;99.90;;;;;;5017379;28;20335;-60
2022/10/21 01:25:39;;;;;;;;;;;10.20;99.90;;;;;;5011003;28;19940;-60
2022/10/21 01:28:12;;;;;;;;;;;10.20;99.90;;;;;;5012476;28;19960;-60
2022/10/21 01:30:38;;;;;;;;;;;10.20;99.90;;;;;;5012176;28;19991;-60
2022/10/21 01:33:22;;;;;;;;;;;10.20;99.90;;;;;;5019438;28;19909;-60
2022/10/21 01:35:50;;;;;;;;;;;10.20;99.90;;;;;;5014600;28;19910;-59
2022/10/21 01:38:22;;;;;;;;;;;10.20;99.90;;;;;;5011586;28;19917;-60
2022/10/21 01:40:53;;;;;;;;;;;10.30;99.90;;;;;;5011300;28;19932;-60
2022/10/21 01:43:32;;;;;;;;;;;10.40;99.90;;;;;;5017043;28;19918;-60
2022/10/21 01:46:24;;;;;;;;;;;10.50;99.90;;;;;;5017472;28;19917;-59
2022/10/21 01:48:51;;;;;;;;;;;10.60;99.90;;;;;;5000586;28;19910;-60
2022/10/21 01:51:17;;;;;;;;;;;10.60;99.90;;;;;;5016389;28;19956;-60
2022/10/21 01:53:50;;;;;;;;;;;10.60;99.90;;;;;;5017674;28;19909;-60
2022/10/21 01:56:16;;;;;;;;;;;10.70;99.90;;;;;;5004606;28;19913;-60
2022/10/21 01:58:43;;;;;;;;;;;10.50;99.90;;;;;;5016381;28;20266;-59
2022/10/21 02:01:10;;;;;;;;;;;10.50;99.90;;;;;;5021576;28;19909;-60
2022/10/21 02:03:37;;;;;;;;;;;10.60;99.90;;;;;;5016997;28;20349;-60
2022/10/21 02:06:03;;;;;;;;;;;10.60;99.90;;;;;;5015100;28;19929;-59
2022/10/21 02:08:28;;;;;;;;;;;10.60;99.90;;;;;;5014385;28;20281;-60
2022/10/21 02:10:56;;;;;;;;;;;10.60;99.90;;;;;;5011358;28;19932;-60
2022/10/21 02:13:23;;;;;;;;;;;10.50;99.90;;;;;;5022160;28;20015;-60
2022/10/21 02:15:50;;;;;;;;;;;10.60;99.90;;;;;;5010692;28;19956;-60
2022/10/21 02:18:21;;;;;;;;;;;10.70;99.90;;;;;;5018166;28;20300;-60
2022/10/21 02:20:49;;;;;;;;;;;10.70;99.90;;;;;;5011405;28;20000;-60
2022/10/21 02:23:17;;;;;;;;;;;10.80;99.90;;;;;;5020575;28;19917;-60
2022/10/21 02:25:45;;;;;;;;;;;10.70;99.90;;;;;;5017056;28;19916;-60
2022/10/21 02:28:12;;;;;;;;;;;10.60;99.90;;;;;;5013210;28;19917;-60
2022/10/21 02:30:44;;;;;;;;;;;10.60;99.90;;;;;;5009273;28;19909;-61
2022/10/21 02:33:17;;;;;;;;;;;10.50;99.90;;;;;;5015122;28;19910;-60
2022/10/21 02:35:45;;;;;;;;;;;10.50;99.90;;;;;;5010567;28;19917;-59
2022/10/21 02:38:17;;;;;;;;;;;10.40;99.90;;;;;;5018077;28;19992;-60
2022/10/21 02:40:49;;;;;;;;;;;10.40;99.90;;;;;;5014100;28;19917;-59
2022/10/21 02:43:20;;;;;;;;;;;10.40;99.90;;;;;;5010533;28;19924;-60
2022/10/21 02:45:46;;;;;;;;;;;10.50;99.90;;;;;;5011274;28;19917;-61
2022/10/21 02:48:12;;;;;;;;;;;10.50;99.90;;;;;;5017832;28;19916;-61
2022/10/21 02:50:38;;;;;;;;;;;10.40;99.90;;;;;;5009938;28;19909;-61
2022/10/21 02:53:03;;;;;;;;;;;10.40;99.90;;;;;;5018208;28;19916;-60
2022/10/21 02:55:29;;;;;;;;;;;10.50;99.90;;;;;;5005886;28;19917;-60
2022/10/21 02:57:55;;;;;;;;;;;10.50;99.90;;;;;;5014798;28;19971;-60
2022/10/21 03:00:20;;;;;;;;;;;10.60;99.90;;;;;;5016269;28;19915;-60
2022/10/21 03:02:46;;;;;;;;;;;10.60;99.90;;;;;;5011173;28;19917;-60
2022/10/21 03:05:12;;;;;;;;;;;10.60;99.90;;;;;;5018465;28;20436;-60
2022/10/21 03:07:38;;;;;;;;;;;10.70;99.90;;;;;;5014737;28;20031;-60
2022/10/21 03:10:04;;;;;;;;;;;10.60;99.90;;;;;;5010236;28;19949;-60
2022/10/21 03:12:29;;;;;;;;;;;10.60;99.90;;;;;;5014855;28;20008;-59
2022/10/21 03:14:55;;;;;;;;;;;10.50;99.90;;;;;;5015960;28;20004;-60
2022/10/21 03:17:20;;;;;;;;;;;10.60;99.90;;;;;;5013608;28;19913;-61
2022/10/21 03:19:46;;;;;;;;;;;10.60;99.90;;;;;;5021512;28;19909;-59
2022/10/21 03:22:12;;;;;;;;;;;10.80;99.90;;;;;;5012354;28;20311;-60
2022/10/21 03:24:37;;;;;;;;;;;10.70;99.90;;;;;;5007034;28;19913;-60
2022/10/21 03:27:03;;;;;;;;;;;10.80;99.90;;;;;;5011542;28;19909;-59
2022/10/21 03:29:29;;;;;;;;;;;10.80;99.90;;;;;;5018711;28;19909;-60
2022/10/21 03:31:54;;;;;;;;;;;10.80;99.90;;;;;;5020668;28;19909;-60
2022/10/21 03:34:20;;;;;;;;;;;10.80;99.90;;;;;;5009074;28;19956;-60
2022/10/21 03:36:45;;;;;;;;;;;10.90;99.90;;;;;;5019101;28;19963;-60
2022/10/21 03:39:11;;;;;;;;;;;11.00;99.90;;;;;;5021279;28;20003;-60
2022/10/21 03:41:37;;;;;;;;;;;11.10;99.90;;;;;;5013781;28;19936;-61
2022/10/21 03:44:02;;;;;;;;;;;11.00;99.90;;;;;;5016886;23;20073;-63
2022/10/21 03:46:28;;;;;;;;;;;11.40;99.90;;;;;;4998299;28;20285;-63
2022/10/21 03:48:53;;;;;;;;;;;11.70;99.90;;;;;;4996371;28;20409;-62
2022/10/21 03:51:19;;;;;;;;;;;11.80;99.90;;;;;;5006224;28;20254;-63
2022/10/21 03:53:45;;;;;;;;;;;11.80;99.90;;;;;;4992796;28;20000;-63
2022/10/21 03:56:11;;;;;;;;;;;11.80;99.90;;;;;;4995079;28;19917;-63
2022/10/21 03:58:37;;;;;;;;;;;11.70;99.90;;;;;;5000630;28;20366;-62
2022/10/21 04:01:02;;;;;;;;;;;11.60;99.90;;;;;;4997851;28;20298;-62
2022/10/21 04:03:28;;;;;;;;;;;11.60;99.90;;;;;;4993997;28;20344;-63
2022/10/21 04:05:54;;;;;;;;;;;11.60;99.90;;;;;;5006303;28;20381;-62
2022/10/21 04:08:19;;;;;;;;;;;11.40;99.90;;;;;;4998417;28;19916;-63
2022/10/21 04:10:45;;;;;;;;;;;11.30;99.90;;;;;;4999720;28;19996;-63
2022/10/21 04:13:10;;;;;;;;;;;11.30;99.90;;;;;;5003445;28;19999;-63
2022/10/21 04:15:36;;;;;;;;;;;11.20;99.90;;;;;;4999192;28;20311;-63
2022/10/21 04:18:02;;;;;;;;;;;11.20;99.90;;;;;;5003932;28;19945;-63
2022/10/21 04:20:27;;;;;;;;;;;11.10;99.90;;;;;;4991409;28;19992;-62
2022/10/21 04:22:53;;;;;;;;;;;11.20;99.90;;;;;;4996781;28;19937;-62
2022/10/21 04:25:18;;;;;;;;;;;11.20;99.90;;;;;;5001282;28;19917;-62
2022/10/21 04:27:44;;;;;;;;;;;11.20;99.90;;;;;;5001462;28;19910;-62
2022/10/21 04:30:09;;;;;;;;;;;11.10;99.90;;;;;;5004832;28;19964;-62
2022/10/21 04:32:35;;;;;;;;;;;11.10;99.90;;;;;;5000085;28;19971;-62
2022/10/21 04:35:00;;;;;;;;;;;11.00;99.90;;;;;;4999832;28;19909;-62
2022/10/21 04:37:26;;;;;;;;;;;11.00;99.90;;;;;;5011771;28;19922;-62
2022/10/21 04:39:52;;;;;;;;;;;11.10;99.90;;;;;;5009366;28;19913;-62
2022/10/21 04:42:17;;;;;;;;;;;11.10;99.90;;;;;;5003629;28;19913;-62
2022/10/21 04:44:43;;;;;;;;;;;11.10;99.90;;;;;;4996613;28;19917;-62
2022/10/21 04:47:08;;;;;;;;;;;11.10;99.90;;;;;;5002189;28;19917;-62
2022/10/21 04:49:34;;;;;;;;;;;11.00;99.90;;;;;;5006815;28;19909;-62
2022/10/21 04:51:59;;;;;;;;;;;11.00;99.90;;;;;;5001773;28;20012;-62
2022/10/21 04:54:25;;;;;;;;;;;11.10;99.90;;;;;;4997892;28;20439;-62
2022/10/21 04:56:50;;;;;;;;;;;11.20;99.90;;;;;;4997833;28;19964;-62
2022/10/21 04:59:16;;;;;;;;;;;11.20;99.90;;;;;;5004047;28;20372;-62
2022/10/21 05:01:42;;;;;;;;;;;11.10;99.90;;;;;;4996293;28;19910;-62
2022/10/21 05:04:07;;;;;;;;;;;11.00;99.90;;;;;;5007445;28;20357;-62
2022/10/21 05:06:33;;;;;;;;;;;11.00;99.90;;;;;;5001020;28;19944;-62
2022/10/21 05:08:58;;;;;;;;;;;11.00;99.90;;;;;;5007579;28;19969;-63
2022/10/21 05:11:24;;;;;;;;;;;10.90;99.90;;;;;;4995253;28;20004;-62
2022/10/21 05:13:50;;;;;;;;;;;11.00;99.90;;;;;;5009495;28;19913;-62
2022/10/21 05:16:15;;;;;;;;;;;10.90;99.90;;;;;;5001856;28;19909;-62
2022/10/21 05:18:41;;;;;;;;;;;11.00;99.90;;;;;;4990947;28;19925;-63
2022/10/21 05:21:07;;;;;;;;;;;11.00;99.90;;;;;;4993553;28;19914;-62
2022/10/21 05:23:32;;;;;;;;;;;11.00;99.90;;;;;;5001212;28;20348;-62
2022/10/21 05:25:58;;;;;;;;;;;11.10;99.90;;;;;;5000012;28;20001;-62
2022/10/21 05:28:23;;;;;;;;;;;11.10;99.90;;;;;;5001035;28;20052;-62
2022/10/21 05:30:49;;;;;;;;;;;11.10;99.90;;;;;;4998660;28;20349;-62
2022/10/21 05:33:15;;;;;;;;;;;11.10;99.90;;;;;;5004722;28;19910;-62
2022/10/21 05:35:40;;;;;;;;;;;11.10;99.90;;;;;;5003402;28;20263;-62
2022/10/21 05:38:06;;;;;;;;;;;11.20;99.90;;;;;;5005745;28;19920;-62
2022/10/21 05:40:32;;;;;;;;;;;11.30;99.90;;;;;;5010366;28;19909;-62
2022/10/21 05:42:57;;;;;;;;;;;11.40;99.90;;;;;;4999902;28;20004;-62
2022/10/21 05:45:23;;;;;;;;;;;11.50;99.90;;;;;;4999602;28;20317;-62
2022/10/21 05:47:49;;;;;;;;;;;11.50;99.90;;;;;;4998594;28;19913;-62
2022/10/21 05:50:14;;;;;;;;;;;11.40;99.90;;;;;;5005132;28;19909;-62
2022/10/21 05:52:40;;;;;;;;;;;11.50;99.90;;;;;;5010587;28;19917;-64
2022/10/21 05:55:06;;;;;;;;;;;11.60;99.90;;;;;;5003618;28;19917;-63
2022/10/21 05:57:32;;;;;;;;;;;11.80;99.90;;;;;;4992177;28;19988;-63
2022/10/21 05:59:58;;;;;;;;;;;12.00;99.90;;;;;;5012085;28;19910;-62
2022/10/21 06:02:23;;;;;;;;;;;12.30;99.90;;;;;;4999970;28;19925;-63
2022/10/21 06:04:49;;;;;;;;;;;12.30;99.90;;;;;;5005717;28;19917;-62
2022/10/21 06:07:15;;;;;;;;;;;12.40;99.90;;;;;;5010150;28;19917;-63
2022/10/21 06:09:40;;;;;;;;;;;12.50;99.90;;;;;;5010176;28;19992;-62
2022/10/21 06:12:06;;;;;;;;;;;12.60;99.90;;;;;;5011256;28;19909;-62
2022/10/21 06:14:34;;;;;;;;;;;12.60;99.90;;;;;;5002291;28;19909;-62
2022/10/21 06:17:00;;;;;;;;;;;12.70;99.90;;;;;;5011329;28;19910;-63
2022/10/21 06:19:25;;;;;;;;;;;12.70;99.90;;;;;;4992614;28;19916;-62
2022/10/21 06:21:53;;;;;;;;;;;12.60;99.90;;;;;;4997871;28;19910;-62
2022/10/21 06:24:18;;;;;;;;;;;12.60;99.90;;;;;;5000652;28;19918;-62
2022/10/21 06:26:44;;;;;;;;;;;12.60;99.90;;;;;;5004063;28;19916;-63
2022/10/21 06:29:09;;;;;;;;;;;12.60;99.90;;;;;;5011298;28;19913;-63
2022/10/21 06:31:35;;;;;;;;;;;12.70;99.90;;;;;;5009544;28;20366;-63
2022/10/21 06:34:01;;;;;;;;;;;12.90;99.90;;;;;;5011516;28;19952;-63
2022/10/21 06:36:26;;;;;;;;;;;13.00;99.90;;;;;;5004216;28;20020;-63
2022/10/21 06:38:52;;;;;;;;;;;13.20;99.90;;;;;;5010011;28;19910;-63
2022/10/21 06:41:18;;;;;;;;;;;13.40;99.90;;;;;;5009517;28;20060;-62
2022/10/21 06:43:44;;;;;;;;;;;13.80;99.90;;;;;;5010624;28;20400;-62
2022/10/21 06:46:10;;;;;;;;;;;13.90;99.90;;;;;;4999874;28;20000;-62
2022/10/21 06:48:37;;;;;;;;;;;14.10;99.90;;;;;;4995044;28;19917;-63
2022/10/21 06:51:06;;;;;;;;;;;14.20;99.90;;;;;;5010150;28;19916;-62
2022/10/21 06:53:33;;;;;;;;;;;14.30;99.90;;;;;;4995912;28;19913;-62
2022/10/21 06:56:09;;;;;;;;;;;14.40;99.90;;;;;;4983417;28;19913;-62
2022/10/21 06:58:36;;;;;;;;;;;14.50;99.90;;;;;;4999536;28;20469;-63
2022/10/21 07:01:06;;;;;;;;;;;14.60;99.90;;;;;;4986136;28;19909;-63
2022/10/21 07:03:32;;;;;;;;;;;14.80;99.90;;;;;;4989355;28;19918;-63
2022/10/21 07:06:04;;;;;;;;;;;14.90;99.90;;;;;;4993335;28;19916;-63
2022/10/21 07:08:30;;;;;;;;;;;15.00;99.90;;;;;;4983666;28;19964;-63
2022/10/21 07:10:56;;;;;;;;;;;15.10;99.90;;;;;;4996005;28;19941;-63
2022/10/21 07:13:23;;;;;;;;;;;15.10;99.90;;;;;;4991818;28;20011;-63
2022/10/21 07:16:00;;;;;;;;;;;15.20;99.90;;;;;;4988954;28;19918;-64
2022/10/21 07:18:26;;;;;;;;;;;15.30;99.90;;;;;;4998420;28;19909;-63
2022/10/21 07:20:52;;;;;;;;;;;15.40;99.90;;;;;;4990815;28;19910;-64
2022/10/21 07:23:18;;;;;;;;;;;15.40;99.90;;;;;;4992695;28;20350;-65
2022/10/21 07:25:43;;;;;;;;;;;15.50;99.90;;;;;;4990486;28;20270;-62
2022/10/21 07:28:09;;;;;;;;;;;15.60;99.90;;;;;;4992973;28;19910;-64
2022/10/21 07:30:38;;;;;;;;;;;15.70;99.90;;;;;;4990466;28;20020;-64
2022/10/21 07:33:04;;;;;;;;;;;15.70;99.90;;;;;;4988270;28;19914;-63
2022/10/21 07:35:30;;;;;;;;;;;15.70;99.90;;;;;;4986641;28;19909;-62
2022/10/21 07:37:55;;;;;;;;;;;15.90;99.90;;;;;;4990432;28;20385;-63
2022/10/21 07:40:21;;;;;;;;;;;15.90;99.90;;;;;;4992071;28;20358;-63
2022/10/21 07:42:47;;;;;;;;;;;16.00;99.90;;;;;;4989497;28;19921;-63
2022/10/21 07:45:13;;;;;;;;;;;16.10;99.90;;;;;;4990609;28;19924;-63
2022/10/21 07:47:39;;;;;;;;;;;16.10;99.90;;;;;;4991794;28;19910;-64
2022/10/21 07:50:08;;;;;;;;;;;16.20;99.90;;;;;;4990976;28;19910;-62
2022/10/21 07:52:33;;;;;;;;;;;16.30;99.90;;;;;;4999498;28;20395;-63
2022/10/21 07:55:00;;;;;;;;;;;16.30;99.90;;;;;;4990954;28;20008;-63
2022/10/21 07:57:26;;;;;;;;;;;16.40;99.90;;;;;;4991344;28;20358;-63
2022/10/21 07:59:52;;;;;;;;;;;16.50;99.90;;;;;;4989197;28;19909;-63
2022/10/21 08:02:18;;;;;;;;;;;16.60;99.90;;;;;;4990718;28;19918;-63
2022/10/21 08:04:47;;;;;;;;;;;16.80;99.90;;;;;;4993566;28;19940;-64
2022/10/21 08:07:13;;;;;;;;;;;16.90;99.90;;;;;;4994858;28;19980;-63
2022/10/21 08:09:39;;;;;;;;;;;17.00;99.90;;;;;;4993972;28;19909;-63
2022/10/21 08:12:04;;;;;;;;;;;17.10;99.90;;;;;;4987640;28;20373;-63
2022/10/21 08:14:30;;;;;;;;;;;16.90;99.90;;;;;;4980470;28;20006;-63
2022/10/21 08:16:56;;;;;;;;;;;16.90;99.90;;;;;;4989000;28;19918;-63
2022/10/21 08:19:26;;;;;;;;;;;16.90;99.90;;;;;;4988878;28;19916;-63
2022/10/21 08:21:51;;;;;;;;;;;17.00;99.90;;;;;;4985096;28;19906;-63
2022/10/21 08:24:17;;;;;;;;;;;17.10;99.90;;;;;;4981844;28;19928;-63
2022/10/21 08:26:42;;;;;;;;;;;17.20;99.90;;;;;;4989171;28;19910;-64
2022/10/21 08:29:08;;;;;;;;;;;17.30;99.90;;;;;;4984292;28;19910;-64
2022/10/21 08:31:34;;;;;;;;;;;17.30;99.90;;;;;;4986768;28;19920;-63
2022/10/21 08:33:59;;;;;;;;;;;17.30;99.90;;;;;;4990989;28;20004;-63
2022/10/21 08:36:25;;;;;;;;;;;17.40;99.90;;;;;;4985882;28;19913;-64
2022/10/21 08:38:52;;;;;;;;;;;17.40;99.90;;;;;;4984696;28;19964;-64
2022/10/21 08:41:23;;;;;;;;;;;17.40;99.90;;;;;;4985262;28;19949;-64
2022/10/21 08:43:51;;;;;;;;;;;17.40;99.90;;;;;;4988158;28;19922;-64
2022/10/21 08:46:23;;;;;;;;;;;17.40;99.90;;;;;;4989044;28;19983;-64
2022/10/21 08:48:52;;;;;;;;;;;17.30;99.90;;;;;;4987975;28;20072;-64
2022/10/21 08:51:22;;;;;;;;;;;17.40;99.90;;;;;;4990290;28;19909;-63
2022/10/21 08:53:49;;;;;;;;;;;17.40;99.90;;;;;;4986486;28;19910;-63
2022/10/21 08:56:18;;;;;;;;;;;17.40;99.90;;;;;;4988845;28;19910;-63
2022/10/21 08:58:46;;;;;;;;;;;17.50;99.90;;;;;;4989315;28;20283;-63
2022/10/21 09:01:11;;;;;;;;;;;17.60;99.90;;;;;;4995152;28;19975;-63
2022/10/21 09:03:44;;;;;;;;;;;17.70;99.90;;;;;;4983574;28;19976;-64
2022/10/21 09:06:16;;;;;;;;;;;17.80;99.90;;;;;;4986662;28;19972;-62
2022/10/21 09:08:53;;;;;;;;;;;17.90;99.90;;;;;;4986384;28;19910;-63
2022/10/21 09:11:42;;;;;;;;;;;18.00;99.90;;;;;;4991244;28;19913;-65
2022/10/21 09:14:19;;;;;;;;;;;18.10;99.90;;;;;;4961865;28;19918;-62
2022/10/21 09:16:50;;;;;;;;;;;18.10;99.90;;;;;;4969728;28;19918;-63
2022/10/21 09:19:15;;;;;;;;;;;18.20;99.90;;;;;;4966904;28;19925;-63
2022/10/21 09:21:53;;;;;;;;;;;18.00;99.90;;;;;;4972432;28;20215;-63
2022/10/21 09:24:22;;;;;;;;;;;17.90;99.90;;;;;;4952404;28;20045;-63
2022/10/21 09:26:49;;;;;;;;;;;17.70;99.90;;;;;;4966455;28;19910;-63
2022/10/21 09:29:35;;;;;;;;;;;17.70;99.90;;;;;;4968139;28;19918;-63
2022/10/21 09:32:12;;;;;;;;;;;17.60;99.90;;;;;;4967581;28;19924;-62
2022/10/21 09:34:44;;;;;;;;;;;17.40;99.90;;;;;;4967150;28;19914;-63
2022/10/21 09:37:16;;;;;;;;;;;17.30;99.90;;;;;;4966699;28;19943;-65
2022/10/21 09:39:45;;;;;;;;;;;17.50;99.90;;;;;;4972429;28;19910;-63
2022/10/21 09:42:11;;;;;;;;;;;17.40;99.90;;;;;;4969083;28;19976;-64
2022/10/21 09:44:37;;;;;;;;;;;17.50;99.90;;;;;;4964720;28;20394;-63
2022/10/21 09:47:10;;;;;;;;;;;17.70;99.90;;;;;;4971665;28;20008;-64
2022/10/21 09:49:36;;;;;;;;;;;17.80;99.90;;;;;;4967775;28;20318;-64
2022/10/21 09:52:03;;;;;;;;;;;17.90;99.90;;;;;;4993040;28;19961;-64
2022/10/21 09:54:32;;;;;;;;;;;17.90;99.90;;;;;;4990037;28;20569;-64
2022/10/21 09:57:04;;;;;;;;;;;18.10;99.90;;;;;;4993847;28;20415;-64
2022/10/21 09:59:31;;;;;;;;;;;18.30;99.90;;;;;;4993504;28;19916;-62
2022/10/21 10:02:04;;;;;;;;;;;18.50;99.90;;;;;;4992282;28;19918;-63
2022/10/21 10:04:31;;;;;;;;;;;18.60;99.90;;;;;;4996585;28;20370;-63
2022/10/21 10:06:58;;;;;;;;;;;18.50;99.90;;;;;;4989271;28;19910;-63
2022/10/21 10:09:27;;;;;;;;;;;18.70;99.90;;;;;;4990604;28;19917;-64
2022/10/21 10:12:10;;;;;;;;;;;18.80;99.90;;;;;;4993358;28;19964;-62
2022/10/21 10:14:48;;;;;;;;;;;18.60;99.90;;;;;;4990174;28;19999;-62
2022/10/21 10:17:19;;;;;;;;;;;18.50;99.90;;;;;;4990874;28;19916;-63
2022/10/21 10:20:04;;;;;;;;;;;18.40;99.90;;;;;;4992105;28;19996;-62
2022/10/21 10:22:36;;;;;;;;;;;18.50;99.90;;;;;;4995658;28;19922;-63
2022/10/21 10:25:07;;;;;;;;;;;18.70;99.90;;;;;;4991189;28;19994;-63
2022/10/21 10:27:33;;;;;;;;;;;18.60;99.90;;;;;;4988310;28;19913;-62
2022/10/21 10:29:59;;;;;;;;;;;18.60;99.90;;;;;;4995818;28;19909;-63
2022/10/21 10:32:28;;;;;;;;;;;18.60;99.90;;;;;;4987724;28;19918;-62
2022/10/21 10:34:58;;;;;;;;;;;18.70;99.90;;;;;;4985890;28;20310;-63
2022/10/21 10:37:26;;;;;;;;;;;18.80;99.90;;;;;;4988205;28;19963;-62
2022/10/21 10:39:54;;;;;;;;;;;18.90;99.90;;;;;;4988750;28;19921;-62
2022/10/21 10:42:24;;;;;;;;;;;19.20;99.90;;;;;;4982107;28;20000;-63
2022/10/21 10:44:51;;;;;;;;;;;19.40;99.90;;;;;;4990900;28;20293;-63
2022/10/21 10:47:28;;;;;;;;;;;19.40;99.90;;;;;;4991431;28;20392;-62
2022/10/21 10:49:57;;;;;;;;;;;19.50;99.90;;;;;;4991053;28;19910;-63
2022/10/21 10:52:23;;;;;;;;;;;19.20;99.90;;;;;;4986992;28;20268;-63
2022/10/21 10:55:07;;;;;;;;;;;19.20;99.90;;;;;;4992320;28;19917;-63
2022/10/21 10:57:33;;;;;;;;;;;19.20;99.90;;;;;;4990232;28;19924;-63
2022/10/21 11:00:04;;;;;;;;;;;19.40;99.90;;;;;;4990015;28;20286;-63
2022/10/21 11:02:37;;;;;;;;;;;19.50;99.90;;;;;;4992040;28;19914;-63
2022/10/21 11:05:08;;;;;;;;;;;19.40;99.90;;;;;;4991195;28;20278;-64
2022/10/21 11:07:42;;;;;;;;;;;19.30;99.90;;;;;;4984720;28;19914;-63
2022/10/21 11:10:43;;;;;;;;;;;19.20;99.90;;;;;;4987006;28;20369;-64
2022/10/21 11:13:11;;;;;;;;;;;19.30;99.90;;;;;;4951657;28;19911;-64
2022/10/21 11:15:37;;;;;;;;;;;19.70;99.90;;;;;;4952929;28;19914;-61
2022/10/21 11:18:29;;;;;;;;;;;20.30;99.90;;;;;;4958008;28;19961;-63
2022/10/21 11:21:02;;;;;;;;;;;20.20;99.90;;;;;;4957331;28;19917;-63
2022/10/21 11:23:43;;;;;;;;;;;19.80;99.90;;;;;;4945195;28;19970;-63
2022/10/21 11:26:18;;;;;;;;;;;20.10;99.90;;;;;;4954286;28;20030;-62
2022/10/21 11:28:50;;;;;;;;;;;20.70;99.90;;;;;;4935604;28;19910;-64
2022/10/21 11:31:32;;;;;;;;;;;20.90;99.90;;;;;;4954837;28;20401;-63
2022/10/21 11:33:58;;;;;;;;;;;21.00;99.90;;;;;;4949342;28;19997;-63
2022/10/21 11:36:29;;;;;;;;;;;21.30;99.90;;;;;;4950149;28;20006;-63
2022/10/21 11:39:13;;;;;;;;;;;21.50;99.90;;;;;;4953295;28;19910;-63
2022/10/21 11:41:44;;;;;;;;;;;21.40;99.90;;;;;;4934034;28;20001;-62
2022/10/21 11:44:15;;;;;;;;;;;21.20;99.90;;;;;;4953992;28;19925;-63
2022/10/21 11:46:59;;;;;;;;;;;21.00;99.90;;;;;;4952661;28;21693;-64
2022/10/21 11:49:28;;;;;;;;;;;20.70;99.90;;;;;;4986685;28;20016;-63
2022/10/21 11:52:10;;;;;;;;;;;20.50;99.90;;;;;;4996066;28;19917;-63
2022/10/21 11:54:59;;;;;;;;;;;20.40;99.90;;;;;;4990149;28;19917;-65
2022/10/21 11:57:42;;;;;;;;;;;20.00;99.90;;;;;;4989635;28;19909;-63
2022/10/21 12:00:18;;;;;;;;;;;20.00;99.90;;;;;;4997952;28;19918;-63
2022/10/21 12:03:02;;;;;;;;;;;20.10;99.90;;;;;;4994475;28;20288;-63
2022/10/21 12:05:32;;;;;;;;;;;20.30;99.90;;;;;;4988206;28;19914;-63
2022/10/21 12:08:09;;;;;;;;;;;20.40;99.90;;;;;;4990653;28;19914;-64
2022/10/21 12:10:38;;;;;;;;;;;20.90;99.90;;;;;;4986234;28;19949;-64
2022/10/21 12:13:08;;;;;;;;;;;20.80;99.90;;;;;;4990102;28;19920;-64
2022/10/21 12:15:40;;;;;;;;;;;21.10;99.90;;;;;;4986305;28;20033;-64
2022/10/21 12:18:10;;;;;;;;;;;21.50;99.90;;;;;;4989559;28;19937;-63
2022/10/21 12:20:36;;;;;;;;;;;22.20;99.90;;;;;;4988317;28;19998;-63
2022/10/21 12:23:03;;;;;;;;;;;22.40;99.90;;;;;;4987670;28;20016;-63
2022/10/21 12:25:32;;;;;;;;;;;22.40;99.90;;;;;;4986565;28;19909;-63
2022/10/21 12:28:12;;;;;;;;;;;22.40;99.90;;;;;;4985636;28;19933;-63
2022/10/21 12:30:49;;;;;;;;;;;22.40;99.90;;;;;;4981358;28;19910;-63
2022/10/21 12:33:20;;;;;;;;;;;21.60;99.90;;;;;;4983562;28;19917;-62
2022/10/21 12:35:53;;;;;;;;;;;20.70;99.90;;;;;;4985111;28;19933;-62
2022/10/21 12:38:37;;;;;;;;;;;20.30;99.90;;;;;;4997718;28;19915;-64
2022/10/21 12:41:21;;;;;;;;;;;19.90;99.90;;;;;;4986098;28;19910;-62
2022/10/21 12:43:57;;;;;;;;;;;19.60;99.90;;;;;;4990809;28;19917;-62
2022/10/21 12:46:25;;;;;;;;;;;19.20;99.90;;;;;;4991762;28;19917;-62
2022/10/21 12:48:51;;;;;;;;;;;18.90;99.90;;;;;;4990643;28;19964;-62
2022/10/21 12:51:26;;;;;;;;;;;18.80;99.90;;;;;;4992334;28;19910;-63
2022/10/21 12:54:05;;;;;;;;;;;18.80;99.90;;;;;;4994821;28;19937;-62
2022/10/21 12:56:44;;;;;;;;;;;18.90;99.90;;;;;;4993713;28;19936;-62
2022/10/21 12:59:24;;;;;;;;;;;18.90;99.90;;;;;;4992025;28;19921;-62
2022/10/21 13:02:04;;;;;;;;;;;19.00;99.90;;;;;;4993438;28;19956;-62
2022/10/21 13:04:30;;;;;;;;;;;19.30;99.90;;;;;;4999746;28;19918;-63
2022/10/21 13:06:56;;;;;;;;;;;19.60;99.90;;;;;;4994078;28;20368;-62
2022/10/21 13:09:49;;;;;;;;;;;20.10;99.90;;;;;;4995827;28;20361;-63
2022/10/21 13:12:15;;;;;;;;;;;20.70;99.90;;;;;;4987110;28;19910;-63
2022/10/21 13:14:40;;;;;;;;;;;21.70;99.90;;;;;;4995445;28;19932;-61
2022/10/21 13:17:32;;;;;;;;;;;22.00;99.90;;;;;;4993197;28;19960;-61
2022/10/21 13:20:13;;;;;;;;;;;22.40;99.90;;;;;;4982031;28;20288;-61
2022/10/21 13:22:40;;;;;;;;;;;22.90;99.90;;;;;;4987575;28;19914;-61
2022/10/21 13:25:09;;;;;;;;;;;23.10;99.90;;;;;;4995591;28;20000;-61
2022/10/21 13:27:36;;;;;;;;;;;22.80;99.90;;;;;;4989004;28;19909;-61
2022/10/21 13:30:05;;;;;;;;;;;22.80;99.90;;;;;;4988409;28;19925;-61
2022/10/21 13:32:35;;;;;;;;;;;23.10;99.90;;;;;;4987145;28;19910;-61
2022/10/21 13:35:13;;;;;;;;;;;23.30;99.90;;;;;;4992614;28;19997;-61
2022/10/21 13:37:39;;;;;;;;;;;23.30;99.90;;;;;;4999790;28;19909;-62
2022/10/21 13:40:11;;;;;;;;;;;22.80;99.90;;;;;;4993109;28;19914;-64
2022/10/21 13:42:41;;;;;;;;;;;23.50;99.90;;;;;;4974000;28;19925;-65
2022/10/21 13:45:26;;;;;;;;;;;23.80;99.90;;;;;;4951389;28;19933;-65
2022/10/21 13:48:03;;;;;;;;;;;24.30;99.90;;;;;;4949566;28;20016;-66
2022/10/21 13:50:32;;;;;;;;;;;24.70;99.90;;;;;;4950789;28;20289;-65
2022/10/21 13:52:58;;;;;;;;;;;24.70;99.90;;;;;;4953128;28;21153;-65
2022/10/21 13:55:24;;;;;;;;;;;24.50;99.90;;;;;;4949377;28;20615;-65
2022/10/21 13:57:51;;;;;;;;;;;24.60;99.90;;;;;;4951959;28;19925;-64
2022/10/21 14:00:24;;;;;;;;;;;24.30;99.90;;;;;;4950975;28;20007;-67
2022/10/21 14:02:54;;;;;;;;;;;24.50;99.90;;;;;;4952032;28;19928;-65
2022/10/21 14:05:30;;;;;;;;;;;24.40;99.90;;;;;;5353135;22;19953;-66
2022/10/21 14:07:55;;;;;;;;;;;23.40;99.90;;;;;;4979635;28;19956;-65
2022/10/21 14:10:21;;;;;;;;;;;23.40;99.90;;;;;;4977700;28;19910;-65
2022/10/21 14:12:47;;;;;;;;;;;23.70;99.90;;;;;;4984037;28;19960;-65
2022/10/21 14:15:16;;;;;;;;;;;23.80;99.90;;;;;;4977148;28;19995;-64
2022/10/21 14:17:46;;;;;;;;;;;23.70;99.90;;;;;;4984744;28;20017;-65
2022/10/21 14:20:14;;;;;;;;;;;23.30;99.90;;;;;;4981495;28;20016;-65
2022/10/21 14:22:40;;;;;;;;;;;23.70;99.90;;;;;;4985161;28;19921;-64
2022/10/21 14:25:08;;;;;;;;;;;24.00;99.90;;;;;;4981175;28;19910;-64
2022/10/21 14:27:34;;;;;;;;;;;24.20;99.90;;;;;;4981092;28;19916;-65